Time;durP1;ratioP1;P1;durP2;ratioP2;P2;SDS_P1;SDS_P2;PMS_P1;PMS_P2;Temp;Humidity;BMP_temperature;BMP_pressure;BME280_temperature;BME280_humidity;BME280_pressure;Samples;Min_cycle;Max_cycle;Signal;HPM_P1;HPM_P2
2022/07/25 00:00:09;;;;;;;8.60;5.50;;;22.10;99.90;;;;;;5015412;28;20053;-78
2022/07/25 00:02:37;;;;;;;10.57;6.32;;;19.90;99.90;;;;;;5015109;28;20083;-78
2022/07/25 00:05:04;;;;;;;8.88;6.25;;;22.10;99.90;;;;;;4998868;28;20101;-78
2022/07/25 00:07:29;;;;;;;9.18;6.60;;;22.00;99.90;;;;;;5033098;28;20057;-78
2022/07/25 00:09:55;;;;;;;12.82;6.65;;;22.20;99.90;;;;;;5015547;28;20123;-78
2022/07/25 00:12:21;;;;;;;11.82;6.82;;;25.20;99.90;;;;;;5033116;28;20063;-78
2022/07/25 00:14:47;;;;;;;9.00;6.63;;;23.10;99.90;;;;;;5032805;28;20504;-78
2022/07/25 00:17:13;;;;;;;8.13;6.80;;;22.00;99.90;;;;;;5033059;28;20215;-78
2022/07/25 00:19:39;;;;;;;8.35;6.90;;;21.90;99.90;;;;;;5015416;28;20057;-78
2022/07/25 00:22:05;;;;;;;9.50;7.10;;;21.90;99.90;;;;;;5033022;28;20053;-78
2022/07/25 00:24:31;;;;;;;8.95;7.40;;;21.90;99.90;;;;;;5015192;28;20136;-78
2022/07/25 00:26:56;;;;;;;12.32;7.72;;;21.90;99.90;;;;;;5014777;28;20064;-78
2022/07/25 00:29:22;;;;;;;10.50;7.68;;;21.90;99.90;;;;;;5015691;28;20135;-78
2022/07/25 00:31:49;;;;;;;12.50;7.68;;;21.90;99.90;;;;;;5032728;28;20046;-78
2022/07/25 00:34:15;;;;;;;11.85;7.63;;;;;;;;;;5032935;28;20045;-78
2022/07/25 00:36:40;;;;;;;11.63;7.85;;;21.80;99.90;;;;;;5032162;28;20277;-77
2022/07/25 00:39:06;;;;;;;14.73;8.30;;;22.40;99.90;;;;;;5033822;28;20465;-78
2022/07/25 00:41:32;;;;;;;12.95;8.05;;;21.80;99.90;;;;;;5015806;28;20050;-78
2022/07/25 00:43:57;;;;;;;11.45;8.00;;;24.70;99.90;;;;;;5033185;28;20056;-78
2022/07/25 00:46:23;;;;;;;10.50;7.82;;;;;;;;;;5016078;28;20045;-78
2022/07/25 00:48:49;;;;;;;15.48;8.38;;;21.80;99.90;;;;;;5036328;28;20491;-78
2022/07/25 00:51:15;;;;;;;11.00;8.43;;;;;;;;;;5036700;28;20059;-78
2022/07/25 00:53:41;;;;;;;11.02;8.48;;;21.40;99.90;;;;;;5018812;28;20053;-78
2022/07/25 00:56:07;;;;;;;10.82;8.52;;;21.70;99.90;;;;;;5002140;28;20585;-78
2022/07/25 00:58:33;;;;;;;10.48;8.32;;;21.80;99.90;;;;;;5035738;28;20050;-78
2022/07/25 01:01:00;;;;;;;12.80;8.40;;;21.70;99.90;;;;;;5063756;23;20066;-62
2022/07/25 01:03:26;;;;;;;10.32;8.10;;;21.60;99.90;;;;;;4987298;28;20397;-63
2022/07/25 01:05:52;;;;;;;13.20;9.25;;;21.80;99.90;;;;;;4976753;28;20490;-63
2022/07/25 01:08:18;;;;;;;14.82;9.40;;;21.60;99.90;;;;;;4986915;28;20082;-64
2022/07/25 01:10:45;;;;;;;10.30;8.40;;;21.80;99.90;;;;;;4974425;28;20047;-64
2022/07/25 01:13:11;;;;;;;16.63;8.77;;;21.60;99.90;;;;;;4976044;28;20445;-64
2022/07/25 01:15:38;;;;;;;10.10;8.65;;;21.70;99.90;;;;;;4975918;28;20057;-64
2022/07/25 01:18:03;;;;;;;12.88;8.70;;;21.60;99.90;;;;;;4975440;28;20442;-64
2022/07/25 01:20:31;;;;;;;9.48;8.27;;;21.60;99.90;;;;;;4976284;28;20059;-64
2022/07/25 01:22:57;;;;;;;11.45;8.48;;;21.80;99.90;;;;;;4975441;28;20513;-65
2022/07/25 01:25:23;;;;;;;13.90;9.02;;;21.70;99.90;;;;;;4976116;28;20097;-64
2022/07/25 01:27:50;;;;;;;12.93;9.10;;;21.60;99.90;;;;;;4974902;28;20051;-64
2022/07/25 01:30:16;;;;;;;11.80;9.00;;;21.60;99.90;;;;;;4975678;28;20051;-64
2022/07/25 01:32:43;;;;;;;14.18;9.07;;;21.60;99.90;;;;;;4975770;28;20054;-64
2022/07/25 01:35:10;;;;;;;11.73;8.75;;;21.40;99.90;;;;;;4975803;28;20050;-65
2022/07/25 01:37:36;;;;;;;11.60;9.32;;;21.50;99.90;;;;;;4975478;28;20461;-63
2022/07/25 01:40:04;;;;;;;12.65;9.23;;;21.60;99.90;;;;;;4975307;28;20046;-64
2022/07/25 01:42:29;;;;;;;17.13;9.70;;;21.40;99.90;;;;;;4975528;28;20077;-65
2022/07/25 01:44:55;;;;;;;12.93;9.68;;;21.50;99.90;;;;;;4975140;28;20070;-64
2022/07/25 01:47:21;;;;;;;15.30;9.82;;;21.60;99.90;;;;;;4975428;28;20139;-64
2022/07/25 01:49:48;;;;;;;13.30;9.07;;;21.40;99.90;;;;;;4974756;28;20134;-64
2022/07/25 01:52:13;;;;;;;11.48;9.15;;;21.10;99.90;;;;;;4975384;28;20125;-64
2022/07/25 01:54:40;;;;;;;12.75;9.40;;;21.40;99.90;;;;;;4974824;28;20042;-64
2022/07/25 01:57:06;;;;;;;14.50;9.30;;;21.40;99.90;;;;;;4974782;28;20382;-64
2022/07/25 01:59:32;;;;;;;15.93;9.60;;;21.10;99.90;;;;;;4974245;28;20409;-64
2022/07/25 02:01:58;;;;;;;11.90;9.57;;;21.30;99.90;;;;;;4983297;28;20093;-64
2022/07/25 02:04:24;;;;;;;13.02;9.88;;;21.90;99.90;;;;;;4994502;28;20050;-64
2022/07/25 02:06:51;;;;;;;12.98;9.10;;;21.30;99.90;;;;;;4994081;28;20193;-64
2022/07/25 02:09:16;;;;;;;13.45;9.60;;;21.30;99.90;;;;;;5003075;28;20057;-64
2022/07/25 02:11:42;;;;;;;10.65;9.32;;;21.20;99.90;;;;;;5009257;28;20290;-64
2022/07/25 02:14:08;;;;;;;15.50;9.85;;;21.20;99.90;;;;;;5005305;28;20473;-64
2022/07/25 02:16:33;;;;;;;11.05;9.30;;;21.20;99.90;;;;;;5013760;28;20056;-64
2022/07/25 02:18:59;;;;;;;15.98;9.32;;;20.90;99.90;;;;;;5004950;28;20140;-64
2022/07/25 02:21:25;;;;;;;12.38;9.77;;;21.20;99.90;;;;;;5002922;28;20100;-63
2022/07/25 02:23:51;;;;;;;12.52;9.52;;;21.50;99.90;;;;;;4993612;28;20089;-64
2022/07/25 02:26:17;;;;;;;13.25;9.48;;;21.10;99.90;;;;;;4993707;28;20059;-63
2022/07/25 02:28:42;;;;;;;14.25;9.98;;;21.10;99.90;;;;;;4993774;28;20038;-63
2022/07/25 02:31:08;;;;;;;11.52;9.52;;;21.20;99.90;;;;;;4994083;28;20105;-63
2022/07/25 02:33:34;;;;;;;12.77;9.38;;;20.50;99.90;;;;;;4994006;28;20486;-63
2022/07/25 02:36:00;;;;;;;13.43;9.57;;;21.10;99.90;;;;;;4993344;28;20453;-64
2022/07/25 02:38:25;;;;;;;15.45;9.65;;;21.00;99.90;;;;;;4994010;28;20042;-63
2022/07/25 02:40:52;;;;;;;12.52;10.35;;;20.90;99.90;;;;;;4959628;28;20058;-63
2022/07/25 02:43:18;;;;;;;15.73;10.05;;;21.00;99.90;;;;;;4993502;28;20057;-63
2022/07/25 02:45:45;;;;;;;14.10;10.93;;;20.90;99.90;;;;;;4993681;28;20078;-63
2022/07/25 02:48:11;;;;;;;12.63;10.93;;;20.80;99.90;;;;;;4993979;28;20405;-63
2022/07/25 02:50:37;;;;;;;13.95;11.02;;;20.80;99.90;;;;;;4993848;28;20046;-64
2022/07/25 02:53:03;;;;;;;13.75;10.73;;;20.70;99.90;;;;;;4993255;28;20039;-63
2022/07/25 02:55:32;;;;;;;14.70;11.32;;;20.60;99.90;;;;;;4993384;28;20042;-64
2022/07/25 02:57:58;;;;;;;13.55;10.45;;;;;;;;;;4993111;28;20085;-63
2022/07/25 03:00:24;;;;;;;12.48;10.32;;;20.90;99.90;;;;;;4976195;28;20060;-64
2022/07/25 03:02:50;;;;;;;13.40;10.70;;;20.90;99.90;;;;;;4975674;28;20054;-63
2022/07/25 03:05:16;;;;;;;14.50;11.10;;;21.10;99.90;;;;;;4993192;28;20050;-64
2022/07/25 03:07:43;;;;;;;16.95;11.07;;;20.70;99.90;;;;;;4993193;28;20085;-63
2022/07/25 03:10:10;;;;;;;13.80;11.13;;;16.50;99.90;;;;;;4992995;28;20493;-63
2022/07/25 03:12:37;;;;;;;13.10;11.13;;;20.50;99.90;;;;;;4993250;28;20046;-64
2022/07/25 03:15:04;;;;;;;14.40;11.20;;;20.40;99.90;;;;;;4975861;28;20112;-64
2022/07/25 03:17:30;;;;;;;13.02;11.43;;;20.80;99.90;;;;;;4993492;28;20097;-64
2022/07/25 03:19:56;;;;;;;15.18;11.43;;;20.50;99.90;;;;;;5005203;28;20077;-63
2022/07/25 03:22:23;;;;;;;15.50;11.93;;;20.40;99.90;;;;;;4976181;28;20046;-63
2022/07/25 03:24:49;;;;;;;18.08;11.93;;;20.70;99.90;;;;;;4992830;28;20441;-63
2022/07/25 03:27:15;;;;;;;13.27;11.52;;;20.30;99.90;;;;;;4993197;28;20076;-64
2022/07/25 03:29:42;;;;;;;14.70;12.07;;;;;;;;;;4993143;28;20070;-63
2022/07/25 03:32:08;;;;;;;14.30;12.23;;;20.60;99.90;;;;;;4993487;28;20077;-63
2022/07/25 03:34:34;;;;;;;15.60;12.07;;;19.90;99.90;;;;;;4993174;28;20054;-63
2022/07/25 03:37:00;;;;;;;12.88;11.55;;;20.30;99.90;;;;;;4992836;28;20379;-64
2022/07/25 03:39:27;;;;;;;15.98;12.00;;;20.50;99.90;;;;;;4992938;28;20131;-64
2022/07/25 03:41:54;;;;;;;15.98;12.20;;;20.20;99.90;;;;;;4992739;28;20493;-64
2022/07/25 03:44:21;;;;;;;16.98;12.98;;;20.10;99.90;;;;;;4992879;28;20046;-64
2022/07/25 03:46:46;;;;;;;14.65;12.55;;;19.70;99.90;;;;;;4992830;28;20046;-64
2022/07/25 03:49:15;;;;;;;18.23;12.93;;;19.70;99.90;;;;;;4992752;28;20038;-64
2022/07/25 03:51:41;;;;;;;16.35;12.73;;;;;;;;;;4992716;28;20049;-63
2022/07/25 03:54:12;;;;;;;14.75;12.00;;;19.70;99.90;;;;;;4992735;28;20038;-63
2022/07/25 03:56:39;;;;;;;13.80;11.55;;;19.70;99.90;;;;;;4992970;28;20054;-63
2022/07/25 03:59:05;;;;;;;16.52;12.00;;;19.80;99.90;;;;;;4992936;28;20405;-63
2022/07/25 04:01:31;;;;;;;16.30;12.10;;;20.40;99.90;;;;;;4992754;28;20508;-63
2022/07/25 04:03:58;;;;;;;17.77;12.57;;;20.60;99.90;;;;;;4992243;28;20524;-63
2022/07/25 04:06:24;;;;;;;23.23;13.07;;;20.20;99.90;;;;;;4975301;28;20046;-64
2022/07/25 04:08:51;;;;;;;12.93;11.35;;;20.20;99.90;;;;;;4992371;28;20101;-64
2022/07/25 04:11:16;;;;;;;15.77;12.25;;;19.90;99.90;;;;;;4992810;28;20121;-64
2022/07/25 04:13:42;;;;;;;15.05;12.98;;;19.60;99.90;;;;;;4992537;28;20122;-64
2022/07/25 04:16:08;;;;;;;15.45;11.73;;;19.80;99.90;;;;;;4993138;28;20514;-63
2022/07/25 04:18:34;;;;;;;15.75;12.13;;;20.40;99.90;;;;;;4992083;28;20398;-63
2022/07/25 04:21:00;;;;;;;17.80;12.10;;;20.00;99.90;;;;;;4993047;28;20050;-63
2022/07/25 04:23:27;;;;;;;15.60;12.13;;;20.20;99.90;;;;;;4995955;28;20074;-63
2022/07/25 04:25:53;;;;;;;13.48;11.75;;;20.40;99.90;;;;;;4995893;28;20058;-60
2022/07/25 04:28:19;;;;;;;14.95;12.52;;;20.10;99.90;;;;;;4996221;28;20394;-64
2022/07/25 04:30:44;;;;;;;15.52;12.13;;;20.40;99.90;;;;;;4996002;28;20042;-65
2022/07/25 04:33:11;;;;;;;16.50;12.63;;;20.30;99.90;;;;;;4996036;28;20042;-64
2022/07/25 04:35:37;;;;;;;15.82;11.55;;;20.80;99.90;;;;;;4996264;28;20193;-64
2022/07/25 04:38:03;;;;;;;14.25;11.50;;;20.50;99.90;;;;;;4995701;28;20379;-64
2022/07/25 04:40:29;;;;;;;18.02;12.88;;;20.40;99.90;;;;;;4995901;28;20126;-64
2022/07/25 04:42:55;;;;;;;15.48;11.85;;;;;;;;;;4977775;28;20413;-64
2022/07/25 04:45:20;;;;;;;14.30;12.20;;;21.20;99.90;;;;;;4996061;28;20046;-64
2022/07/25 04:47:46;;;;;;;18.48;11.85;;;20.80;99.90;;;;;;4995576;28;20442;-64
2022/07/25 04:50:12;;;;;;;15.57;11.90;;;21.70;99.90;;;;;;4996011;28;20042;-64
2022/07/25 04:52:38;;;;;;;13.38;11.98;;;21.50;99.90;;;;;;4995579;28;20403;-64
2022/07/25 04:55:05;;;;;;;17.38;11.82;;;22.30;99.90;;;;;;4995544;28;20086;-64
2022/07/25 04:57:30;;;;;;;14.63;11.85;;;22.90;99.90;;;;;;4995821;28;20054;-64
2022/07/25 04:59:57;;;;;;;14.77;11.68;;;22.90;99.90;;;;;;4995055;28;20128;-64
2022/07/25 05:02:24;;;;;;;17.63;11.38;;;22.90;99.90;;;;;;4995247;28;20141;-65
2022/07/25 05:04:50;;;;;;;12.75;11.20;;;23.30;99.90;;;;;;4995429;28;20097;-65
2022/07/25 05:07:15;;;;;;;12.80;11.38;;;23.70;99.90;;;;;;4995694;28;20038;-64
2022/07/25 05:09:41;;;;;;;14.65;11.35;;;23.70;99.90;;;;;;4995225;28;20387;-64
2022/07/25 05:12:07;;;;;;;13.23;10.93;;;23.50;99.90;;;;;;4995106;28;20166;-65
2022/07/25 05:14:32;;;;;;;13.73;11.52;;;24.00;99.90;;;;;;4995632;28;20042;-65
2022/07/25 05:16:58;;;;;;;19.23;11.02;;;23.50;99.90;;;;;;4995255;28;20065;-64
2022/07/25 05:19:24;;;;;;;15.68;11.00;;;23.90;99.90;;;;;;4995445;28;20061;-64
2022/07/25 05:21:50;;;;;;;13.90;10.25;;;23.80;99.90;;;;;;4994781;28;20046;-65
2022/07/25 05:24:16;;;;;;;19.90;10.90;;;24.00;99.90;;;;;;4995226;28;20128;-65
2022/07/25 05:26:42;;;;;;;14.55;11.52;;;23.40;99.90;;;;;;4977473;28;20090;-64
2022/07/25 05:29:09;;;;;;;19.45;11.20;;;23.90;99.90;;;;;;4994938;28;20061;-65
2022/07/25 05:31:34;;;;;;;14.75;10.30;;;24.60;99.90;;;;;;4995233;28;20047;-64
2022/07/25 05:34:00;;;;;;;13.20;10.40;;;25.90;99.90;;;;;;4994535;28;20042;-65
2022/07/25 05:36:26;;;;;;;12.90;10.25;;;25.50;99.90;;;;;;4995072;28;20042;-65
2022/07/25 05:38:52;;;;;;;13.90;10.18;;;26.20;99.90;;;;;;4994496;28;20150;-65
2022/07/25 05:41:19;;;;;;;13.85;10.45;;;26.90;99.90;;;;;;4995107;28;20054;-64
2022/07/25 05:43:46;;;;;;;12.25;10.40;;;;;;;;;;4994327;28;20401;-65
2022/07/25 05:46:12;;;;;;;11.63;9.70;;;28.70;94.90;;;;;;4994841;28;20132;-65
2022/07/25 05:48:38;;;;;;;13.10;8.98;;;29.30;93.80;;;;;;4994744;28;20123;-65
2022/07/25 05:51:04;;;;;;;10.55;9.20;;;29.40;90.50;;;;;;4994271;28;20100;-65
2022/07/25 05:53:29;;;;;;;15.35;9.38;;;29.90;87.80;;;;;;4977128;28;20064;-65
2022/07/25 05:55:55;;;;;;;20.05;9.48;;;30.60;82.60;;;;;;4994208;28;20058;-65
2022/07/25 05:58:21;;;;;;;13.18;9.43;;;30.80;80.60;;;;;;5023068;28;20050;-65
2022/07/25 06:00:47;;;;;;;13.13;9.73;;;30.50;78.70;;;;;;5013800;28;20392;-65
2022/07/25 06:03:13;;;;;;;14.52;9.00;;;30.00;80.20;;;;;;5023466;28;20096;-65
2022/07/25 06:05:38;;;;;;;9.95;8.85;;;29.70;81.80;;;;;;5024529;28;20049;-65
2022/07/25 06:08:04;;;;;;;11.75;9.18;;;29.60;90.50;;;;;;5023912;28;20140;-65
2022/07/25 06:10:30;;;;;;;193.73;19.38;;;29.10;90.20;;;;;;5027500;28;20037;-65
2022/07/25 06:12:56;;;;;;;19.23;9.20;;;30.20;82.10;;;;;;5022177;28;20069;-65
2022/07/25 06:15:21;;;;;;;64.82;11.77;;;28.00;75.70;;;;;;5005699;28;20045;-65
2022/07/25 06:17:47;;;;;;;211.40;20.90;;;31.60;74.60;;;;;;5017659;28;20049;-65
2022/07/25 06:20:12;;;;;;;151.35;17.42;;;31.90;72.40;;;;;;5018635;28;20401;-65
2022/07/25 06:22:39;;;;;;;58.55;11.27;;;32.20;71.50;;;;;;5018998;28;20524;-65
2022/07/25 06:25:05;;;;;;;99.95;14.30;;;32.50;73.50;;;;;;5019951;28;20085;-65
2022/07/25 06:27:31;;;;;;;210.32;19.90;;;32.20;74.40;;;;;;5016352;28;20533;-66
2022/07/25 06:29:57;;;;;;;344.40;28.75;;;32.90;75.70;;;;;;5020010;28;20116;-66
2022/07/25 06:32:23;;;;;;;26.38;9.25;;;32.80;71.80;;;;;;5001123;28;20402;-65
2022/07/25 06:34:48;;;;;;;12.50;7.88;;;33.10;67.10;;;;;;5020822;28;20037;-66
2022/07/25 06:37:14;;;;;;;11.00;8.10;;;33.10;64.00;;;;;;5016913;28;20483;-66
2022/07/25 06:39:40;;;;;;;11.85;8.30;;;32.70;64.20;;;;;;5011384;28;20046;-66
2022/07/25 06:42:06;;;;;;;12.65;8.02;;;32.10;65.30;;;;;;4993761;28;20050;-65
2022/07/25 06:44:33;;;;;;;12.18;7.78;;;31.50;67.00;;;;;;4988543;28;20049;-66
2022/07/25 06:47:00;;;;;;;15.02;8.38;;;31.20;68.40;;;;;;5018770;28;20133;-65
2022/07/25 06:49:26;;;;;;;15.30;7.35;;;31.00;69.40;;;;;;5025043;28;20080;-66
2022/07/25 06:51:52;;;;;;;78.90;11.82;;;31.00;70.30;;;;;;5001393;28;20428;-66
2022/07/25 06:54:18;;;;;;;17.77;7.78;;;31.50;69.00;;;;;;5025807;28;20042;-66
2022/07/25 06:56:43;;;;;;;12.65;7.50;;;32.40;66.00;;;;;;5024523;28;20103;-65
2022/07/25 06:59:09;;;;;;;15.15;7.45;;;33.20;62.90;;;;;;5027121;28;20104;-66
2022/07/25 07:01:35;;;;;;;19.25;7.68;;;33.90;60.00;;;;;;5015699;28;20054;-67
2022/07/25 07:04:01;;;;;;;10.25;6.88;;;34.40;57.80;;;;;;4996284;28;20053;-66
2022/07/25 07:06:27;;;;;;;10.52;6.50;;;34.60;55.80;;;;;;5017429;28;20377;-67
2022/07/25 07:08:53;;;;;;;9.55;7.00;;;35.00;54.20;;;;;;5016926;28;20037;-66
2022/07/25 07:11:18;;;;;;;10.85;6.70;;;35.60;56.70;;;;;;5024564;28;20499;-67
2022/07/25 07:13:44;;;;;;;13.23;6.97;;;35.70;57.60;;;;;;5021573;28;20412;-67
2022/07/25 07:16:10;;;;;;;12.40;6.93;;;35.60;51.90;;;;;;5028626;28;20056;-67
2022/07/25 07:18:36;;;;;;;10.93;6.75;;;36.20;54.30;;;;;;5025432;28;20045;-66
2022/07/25 07:21:03;;;;;;;10.15;6.80;;;36.50;52.90;;;;;;5013188;28;20042;-66
2022/07/25 07:23:29;;;;;;;10.88;7.40;;;36.20;49.80;;;;;;5017901;28;20125;-66
2022/07/25 07:25:55;;;;;;;12.45;6.70;;;36.10;49.70;;;;;;4996163;28;20117;-67
2022/07/25 07:28:20;;;;;;;9.25;7.60;;;36.20;50.20;;;;;;5027620;28;20098;-66
2022/07/25 07:30:46;;;;;;;14.25;8.10;;;35.70;54.80;;;;;;5017520;28;20169;-67
2022/07/25 07:33:12;;;;;;;14.10;7.93;;;35.70;50.60;;;;;;4996873;28;20070;-66
2022/07/25 07:35:38;;;;;;;15.90;8.10;;;35.40;51.70;;;;;;5005036;28;20136;-67
2022/07/25 07:38:04;;;;;;;11.15;7.07;;;35.20;52.00;;;;;;4994290;28;20046;-67
2022/07/25 07:40:30;;;;;;;15.30;8.55;;;35.00;52.80;;;;;;5011837;28;20057;-66
2022/07/25 07:42:59;;;;;;;12.32;8.25;;;34.70;53.00;;;;;;4993168;28;20050;-67
2022/07/25 07:45:26;;;;;;;17.77;8.25;;;33.10;59.00;;;;;;5000639;28;20512;-66
2022/07/25 07:47:53;;;;;;;12.02;8.60;;;34.30;54.30;;;;;;5001585;28;20095;-66
2022/07/25 07:50:25;;;;;;;13.43;8.82;;;33.30;59.20;;;;;;5019098;28;20125;-66
2022/07/25 07:52:52;;;;;;;13.73;8.63;;;33.90;60.00;;;;;;5028815;28;20073;-66
2022/07/25 07:58:03;;;;;;;10.45;7.97;;;33.70;56.40;;;;;;5028650;28;20076;-65
2022/07/25 08:00:29;;;;;;;11.50;8.43;;;33.70;57.60;;;;;;5025867;28;20139;-65
2022/07/25 08:02:56;;;;;;;10.73;7.40;;;33.80;61.80;;;;;;5031296;28;20049;-66
2022/07/25 08:05:25;;;;;;;10.43;7.85;;;33.80;58.10;;;;;;5008985;28;20053;-65
2022/07/25 08:07:52;;;;;;;11.98;8.25;;;33.90;57.30;;;;;;5019324;28;20041;-65
2022/07/25 08:10:23;;;;;;;11.70;7.30;;;34.10;60.80;;;;;;5030360;28;20045;-65
2022/07/25 08:12:49;;;;;;;16.63;7.93;;;33.70;56.70;;;;;;5019091;28;20104;-65
2022/07/25 08:15:16;;;;;;;8.60;7.38;;;33.70;56.70;;;;;;5021935;28;20580;-66
2022/07/25 08:17:43;;;;;;;11.85;7.97;;;33.80;57.60;;;;;;5010855;28;20041;-66
2022/07/25 08:20:10;;;;;;;18.52;8.23;;;33.50;56.90;;;;;;5018848;28;20072;-65
2022/07/25 08:22:40;;;;;;;11.77;7.80;;;33.10;57.20;;;;;;5030660;28;20386;-65
2022/07/25 08:25:08;;;;;;;13.65;8.38;;;32.70;57.90;;;;;;5006188;28;20052;-65
2022/07/25 08:27:35;;;;;;;22.63;8.43;;;32.30;58.30;;;;;;5021325;28;20045;-65
2022/07/25 08:30:01;;;;;;;14.40;7.93;;;31.90;59.00;;;;;;5008671;28;20081;-66
2022/07/25 08:32:27;;;;;;;14.50;7.13;;;31.60;59.70;;;;;;5024737;28;20591;-66
2022/07/25 08:34:54;;;;;;;9.93;7.20;;;31.30;60.80;;;;;;4985316;28;20591;-66
2022/07/25 08:37:20;;;;;;;11.02;7.75;;;30.40;66.30;;;;;;5020877;28;20444;-66
2022/07/25 08:39:45;;;;;;;12.50;8.60;;;30.60;63.40;;;;;;5019990;28;20053;-66
2022/07/25 08:42:11;;;;;;;17.48;8.88;;;29.80;71.10;;;;;;5002397;28;20129;-65
2022/07/25 08:44:41;;;;;;;11.32;8.70;;;29.90;65.90;;;;;;5023418;28;20049;-70
2022/07/25 08:47:08;;;;;;;10.38;8.50;;;29.70;67.10;;;;;;5012136;28;20060;-69
2022/07/25 08:49:35;;;;;;;17.45;8.70;;;29.40;68.20;;;;;;5017552;28;20037;-70
2022/07/25 08:52:02;;;;;;;12.77;7.97;;;29.20;69.90;;;;;;5013851;28;20492;-70
2022/07/25 08:54:30;;;;;;;13.55;7.88;;;28.90;70.00;;;;;;5013609;28;20085;-70
2022/07/25 08:56:56;;;;;;;15.60;7.40;;;28.80;74.60;;;;;;5014168;28;20057;-69
2022/07/25 08:59:22;;;;;;;9.15;6.95;;;28.90;74.80;;;;;;5012249;28;20057;-68
2022/07/25 09:01:47;;;;;;;12.70;7.40;;;28.80;77.00;;;;;;5035372;28;20060;-68
2022/07/25 09:04:13;;;;;;;9.57;7.40;;;28.70;71.50;;;;;;5035828;28;20492;-69
2022/07/25 09:06:49;;;;;;;11.50;7.47;;;28.60;71.80;;;;;;5035509;28;20053;-70
2022/07/25 09:09:15;;;;;;;10.48;6.90;;;28.50;76.50;;;;;;5036193;28;20124;-69
2022/07/25 09:11:41;;;;;;;10.18;5.97;;;28.50;72.70;;;;;;5036144;28;20049;-70
2022/07/25 09:14:11;;;;;;;9.52;5.78;;;28.40;72.60;;;;;;5049530;23;20059;-82
2022/07/25 09:16:42;;;;;;;8.30;5.35;;;28.40;73.20;;;;;;5021617;28;20049;-84
2022/07/25 09:19:16;;;;;;;13.35;5.00;;;28.00;70.70;;;;;;5020542;28;20137;-85
2022/07/25 09:21:43;;;;;;;7.07;4.38;;;27.90;71.60;;;;;;5021039;28;20477;-82
2022/07/25 09:24:15;;;;;;;6.85;4.65;;;27.90;72.50;;;;;;5018180;28;20408;-82
2022/07/25 09:26:51;;;;;;;6.60;4.70;;;27.90;73.00;;;;;;5022625;28;20041;-83
2022/07/25 09:29:19;;;;;;;9.45;4.53;;;27.70;73.90;;;;;;5030275;28;20053;-83
2022/07/25 09:31:45;;;;;;;6.93;4.40;;;;;;;;;;5027509;28;20404;-81
2022/07/25 09:34:11;;;;;;;8.85;4.35;;;;;;;;;;5017375;28;20045;-81
2022/07/25 09:36:49;;;;;;;6.75;4.28;;;27.50;76.20;;;;;;5017344;28;20061;-83
2022/07/25 09:39:15;;;;;;;11.75;4.63;;;;;;;;;;5017500;28;20492;-82
2022/07/25 09:41:41;;;;;;;10.18;4.53;;;;;;;;;;5015325;28;20787;-82
2022/07/25 09:44:18;;;;;;;12.48;4.68;;;27.30;77.50;;;;;;5014807;28;20057;-81
2022/07/25 09:46:44;;;;;;;6.05;4.68;;;;;;;;;;5013791;28;20046;-81
2022/07/25 09:49:13;;;;;;;6.13;4.60;;;;;;;;;;5015621;28;20088;-81
2022/07/25 09:51:40;;;;;;;8.95;4.75;;;;;;;;;;5014136;28;20480;-81
2022/07/25 09:54:06;;;;;;;6.22;4.80;;;;;;;;;;5016428;28;20045;-81
2022/07/25 09:56:34;;;;;;;12.10;4.85;;;;;;;;;;5014499;28;20034;-81
2022/07/25 09:59:00;;;;;;;6.93;5.60;;;;;;;;;;5014629;28;20054;-82
2022/07/25 10:01:35;;;;;;;10.70;5.25;;;27.50;80.10;;;;;;5025622;28;20049;-81
2022/07/25 10:04:25;;;;;;;8.30;5.57;;;27.60;84.60;;;;;;5013836;28;20148;-79
2022/07/25 10:07:08;;;;;;;9.50;5.63;;;27.00;84.70;;;;;;5025023;28;20061;-80
2022/07/25 10:09:41;;;;;;;8.52;5.32;;;27.50;82.30;;;;;;5023272;28;20377;-81
2022/07/25 10:12:12;;;;;;;8.07;5.50;;;27.70;86.00;;;;;;5023832;28;20096;-80
2022/07/25 10:14:38;;;;;;;7.53;5.00;;;;;;;;;;5049231;28;20087;-81
2022/07/25 10:17:04;;;;;;;9.82;5.20;;;;;;;;;;5048010;28;20136;-81
2022/07/25 10:19:46;;;;;;;6.50;4.20;;;27.90;80.40;;;;;;5070038;28;20060;-80
2022/07/25 10:22:13;;;;;;;8.45;3.08;;;27.70;78.40;;;;;;5046933;28;20049;-80
2022/07/25 10:24:44;;;;;;;12.52;3.28;;;27.50;76.40;;;;;;5040798;28;20045;-81
2022/07/25 10:27:20;;;;;;;11.95;2.90;;;27.20;79.10;;;;;;5062783;28;20111;-83
2022/07/25 10:29:51;;;;;;;6.90;3.30;;;27.00;81.60;;;;;;5065617;28;20275;-83
2022/07/25 10:32:17;;;;;;;7.35;3.30;;;;;;;;;;5045850;28;20077;-83
2022/07/25 10:34:51;;;;;;;6.10;3.40;;;26.80;83.90;;;;;;5042957;28;20037;-82
2022/07/25 10:37:18;;;;;;;6.88;3.38;;;;;;;;;;5052539;28;20056;-83
2022/07/25 10:39:45;;;;;;;7.10;3.45;;;26.60;84.20;;;;;;5048820;28;20049;-82
2022/07/25 10:42:15;;;;;;;12.35;3.38;;;26.40;87.20;;;;;;5012883;28;20423;-81
2022/07/25 10:44:44;;;;;;;5.68;3.42;;;26.90;87.10;;;;;;5032832;28;20041;-81
2022/07/25 10:47:12;;;;;;;8.57;3.28;;;26.80;87.50;;;;;;5053571;28;20079;-81
2022/07/25 10:49:46;;;;;;;7.20;3.08;;;26.70;84.70;;;;;;5053628;28;20047;-82
2022/07/25 10:52:18;;;;;;;5.78;2.83;;;26.30;86.60;;;;;;5042584;28;20124;-80
2022/07/25 10:54:58;;;;;;;4.70;2.95;;;26.90;89.00;;;;;;5021465;28;20049;-82
2022/07/25 10:57:24;;;;;;;7.40;2.92;;;;;;;;;;5041817;28;20139;-83
2022/07/25 10:59:51;;;;;;;4.80;2.90;;;;;;;;;;5038506;28;20045;-81
2022/07/25 11:02:17;;;;;;;4.55;2.90;;;;;;;;;;5042073;28;20067;-81
2022/07/25 11:04:45;;;;;;;7.85;3.03;;;27.30;82.30;;;;;;5030327;28;20095;-82
2022/07/25 11:07:18;;;;;;;7.50;2.70;;;27.10;82.90;;;;;;5050319;28;20056;-83
2022/07/25 11:09:59;;;;;;;6.05;2.55;;;27.40;81.50;;;;;;5012559;28;20115;-82
2022/07/25 11:12:25;;;;;;;6.75;2.90;;;27.40;87.50;;;;;;5038502;28;20080;-82
2022/07/25 11:14:59;;;;;;;3.63;2.50;;;27.50;84.80;;;;;;5046062;28;20403;-81
2022/07/25 11:17:25;;;;;;;5.27;2.97;;;27.30;82.40;;;;;;5049999;28;20077;-82
2022/07/25 11:20:05;;;;;;;7.75;2.60;;;26.90;85.70;;;;;;5048117;28;20083;-82
2022/07/25 11:22:33;;;;;;;5.93;2.50;;;26.80;84.00;;;;;;5044709;28;20053;-81
2022/07/25 11:24:59;;;;;;;5.57;2.13;;;26.60;90.40;;;;;;5003615;28;20060;-81
2022/07/25 11:27:30;;;;;;;12.10;2.42;;;26.50;89.00;;;;;;5038832;28;20144;-81
2022/07/25 11:30:16;;;;;;;4.75;2.50;;;25.80;95.80;;;;;;5042502;28;20056;-81
2022/07/25 11:32:43;;;;;;;;;;;26.10;95.40;;;;;;5046028;28;20500;-81
2022/07/25 11:35:10;;;;;;;4.60;2.45;;;25.70;99.20;;;;;;5044876;28;19921;-80
2022/07/25 11:37:38;;;;;;;3.78;2.40;;;25.70;99.90;;;;;;5048419;28;20384;-81
2022/07/25 11:40:06;;;;;;;6.07;2.67;;;25.70;99.90;;;;;;5037676;28;20052;-81
2022/07/25 11:42:49;;;;;;;10.02;2.50;;;25.90;99.90;;;;;;5043657;28;20042;-80
2022/07/25 11:45:21;;;;;;;3.85;2.53;;;25.90;99.90;;;;;;5035121;28;20127;-81
2022/07/25 11:48:06;;;;;;;8.82;2.78;;;26.10;99.90;;;;;;5004737;28;20044;-82
2022/07/25 11:50:34;;;;;;;9.90;2.80;;;26.20;99.90;;;;;;5044058;28;20479;-81
2022/07/25 11:53:02;;;;;;;6.22;2.20;;;26.30;99.90;;;;;;5028411;28;20049;-81
2022/07/25 11:55:30;;;;;;;4.63;2.05;;;26.70;99.90;;;;;;5052961;28;20049;-81
2022/07/25 11:58:04;;;;;;;7.55;2.30;;;26.80;99.90;;;;;;5043200;28;20045;-81
2022/07/25 12:00:33;;;;;;;6.53;2.05;;;26.70;99.90;;;;;;5023108;28;20126;-81
2022/07/25 12:03:13;;;;;;;6.97;2.22;;;26.30;99.90;;;;;;5002031;28;20133;-82
2022/07/25 12:05:40;;;;;;;5.00;2.33;;;;;;;;;;5022687;28;20084;-82
2022/07/25 12:08:13;;;;;;;5.13;2.20;;;25.90;99.90;;;;;;5050099;28;20054;-82
2022/07/25 12:10:40;;;;;;;5.60;2.40;;;;;;;;;;5027729;28;20107;-82
2022/07/25 12:13:08;;;;;;;49.20;5.97;;;26.60;99.90;;;;;;4943152;28;3045017;-83
2022/07/25 12:15:40;;;;;;;6.47;2.55;;;26.40;99.90;;;;;;5021187;28;20479;-82
2022/07/25 12:18:09;;;;;;;8.90;2.70;;;26.40;99.90;;;;;;5029388;28;20083;-82
2022/07/25 12:20:38;;;;;;;13.15;3.00;;;26.50;99.90;;;;;;5009443;28;20045;-82
2022/07/25 12:23:08;;;;;;;6.78;2.60;;;26.40;99.90;;;;;;5053648;28;20396;-81
2022/07/25 12:25:36;;;;;;;8.40;2.83;;;26.40;99.90;;;;;;5053459;28;20056;-82
2022/07/25 12:28:02;;;;;;;7.55;2.90;;;;;;;;;;5056799;28;20056;-82
2022/07/25 12:30:29;;;;;;;8.73;2.67;;;26.40;99.90;;;;;;5030470;28;20053;-82
2022/07/25 12:32:56;;;;;;;6.78;2.83;;;26.50;99.90;;;;;;5024808;28;20093;-82
2022/07/25 12:35:22;;;;;;;6.43;2.75;;;26.60;99.90;;;;;;5056914;28;20068;-82
2022/07/25 12:37:49;;;;;;;11.18;2.80;;;;;;;;;;5007658;28;20042;-81
2022/07/25 12:40:15;;;;;;;5.80;2.60;;;26.40;99.90;;;;;;5022261;28;20085;-82
2022/07/25 12:42:42;;;;;;;6.50;2.63;;;26.50;99.90;;;;;;5021564;28;20054;-82
2022/07/25 12:45:09;;;;;;;5.05;2.30;;;26.30;99.90;;;;;;5054041;28;20057;-81
2022/07/25 12:47:35;;;;;;;5.85;2.45;;;;;;;;;;5053561;28;20045;-82
2022/07/25 12:50:01;;;;;;;9.15;2.88;;;;;;;;;;5024662;28;20046;-82